sensor_id;sensor_type;location;lat;lon;timestamp;temperature;humidity
50989;DHT22;37008;52.210;21.112;2024-01-27T00:01:11;3.40;99.90
50989;DHT22;37008;52.210;21.112;2024-01-27T00:03:36;3.50;99.90
50989;DHT22;37008;52.210;21.112;2024-01-27T00:06:02;3.60;99.90
50989;DHT22;37008;52.210;21.112;2024-01-27T00:08:27;3.70;99.90
50989;DHT22;37008;52.210;21.112;2024-01-27T00:10:53;3.80;99.90
50989;DHT22;37008;52.210;21.112;2024-01-27T00:13:19;3.80;99.90
50989;DHT22;37008;52.210;21.112;2024-01-27T00:15:44;3.90;99.90
50989;DHT22;37008;52.210;21.112;2024-01-27T00:18:10;3.90;99.90
50989;DHT22;37008;52.210;21.112;2024-01-27T00:20:36;3.90;99.90
50989;DHT22;37008;52.210;21.112;2024-01-27T00:23:03;4.00;99.90
50989;DHT22;37008;52.210;21.112;2024-01-27T00:25:29;4.00;99.90
50989;DHT22;37008;52.210;21.112;2024-01-27T00:27:54;4.00;99.90
50989;DHT22;37008;52.210;21.112;2024-01-27T00:30:20;4.00;99.90
50989;DHT22;37008;52.210;21.112;2024-01-27T00:32:45;4.00;99.90
50989;DHT22;37008;52.210;21.112;2024-01-27T00:35:11;4.00;99.90
50989;DHT22;37008;52.210;21.112;2024-01-27T00:37:42;4.00;99.90
50989;DHT22;37008;52.210;21.112;2024-01-27T00:40:09;4.00;99.90
50989;DHT22;37008;52.210;21.112;2024-01-27T00:42:35;3.90;99.90
50989;DHT22;37008;52.210;21.112;2024-01-27T00:45:01;3.90;99.90
50989;DHT22;37008;52.210;21.112;2024-01-27T00:47:26;3.80;99.90
50989;DHT22;37008;52.210;21.112;2024-01-27T00:49:52;4.00;99.90
50989;DHT22;37008;52.210;21.112;2024-01-27T00:52:20;3.80;99.90
50989;DHT22;37008;52.210;21.112;2024-01-27T00:54:45;3.80;99.90
50989;DHT22;37008;52.210;21.112;2024-01-27T00:57:11;3.80;99.90
50989;DHT22;37008;52.210;21.112;2024-01-27T00:59:36;3.80;99.90
50989;DHT22;37008;52.210;21.112;2024-01-27T01:02:02;3.80;99.90
50989;DHT22;37008;52.210;21.112;2024-01-27T01:04:28;3.80;99.90
50989;DHT22;37008;52.210;21.112;2024-01-27T01:06:53;3.70;99.90
50989;DHT22;37008;52.210;21.112;2024-01-27T01:09:19;3.70;99.90
50989;DHT22;37008;52.210;21.112;2024-01-27T01:11:44;3.70;99.90
50989;DHT22;37008;52.210;21.112;2024-01-27T01:14:10;3.70;99.90
50989;DHT22;37008;52.210;21.112;2024-01-27T01:16:36;3.70;99.90
50989;DHT22;37008;52.210;21.112;2024-01-27T01:19:01;3.70;99.90
50989;DHT22;37008;52.210;21.112;2024-01-27T01:21:27;3.70;99.90
50989;DHT22;37008;52.210;21.112;2024-01-27T01:23:53;3.80;99.90
50989;DHT22;37008;52.210;21.112;2024-01-27T01:26:19;3.80;99.90
50989;DHT22;37008;52.210;21.112;2024-01-27T01:28:44;3.80;99.90
50989;DHT22;37008;52.210;21.112;2024-01-27T01:31:10;3.70;99.90
50989;DHT22;37008;52.210;21.112;2024-01-27T01:33:36;3.70;99.90
50989;DHT22;37008;52.210;21.112;2024-01-27T01:36:01;3.70;99.90
50989;DHT22;37008;52.210;21.112;2024-01-27T01:38:27;3.80;99.90
50989;DHT22;37008;52.210;21.112;2024-01-27T01:40:52;3.80;99.90
50989;DHT22;37008;52.210;21.112;2024-01-27T01:43:18;3.80;99.90
50989;DHT22;37008;52.210;21.112;2024-01-27T01:45:44;3.80;99.90
50989;DHT22;37008;52.210;21.112;2024-01-27T01:48:09;3.80;99.90
50989;DHT22;37008;52.210;21.112;2024-01-27T01:50:35;3.70;99.90
50989;DHT22;37008;52.210;21.112;2024-01-27T01:53:01;3.80;99.90
50989;DHT22;37008;52.210;21.112;2024-01-27T01:55:27;3.80;99.90
50989;DHT22;37008;52.210;21.112;2024-01-27T01:57:52;3.70;99.90
50989;DHT22;37008;52.210;21.112;2024-01-27T02:00:18;3.80;99.90
50989;DHT22;37008;52.210;21.112;2024-01-27T02:02:44;3.80;99.90
50989;DHT22;37008;52.210;21.112;2024-01-27T02:05:14;3.80;99.90
50989;DHT22;37008;52.210;21.112;2024-01-27T02:07:40;3.80;99.90
50989;DHT22;37008;52.210;21.112;2024-01-27T02:10:15;3.80;99.90
50989;DHT22;37008;52.210;21.112;2024-01-27T02:12:42;3.80;99.90
50989;DHT22;37008;52.210;21.112;2024-01-27T02:15:12;3.80;99.90
50989;DHT22;37008;52.210;21.112;2024-01-27T02:17:38;3.80;99.90
50989;DHT22;37008;52.210;21.112;2024-01-27T02:20:08;3.80;99.90
50989;DHT22;37008;52.210;21.112;2024-01-27T02:22:34;3.80;99.90
50989;DHT22;37008;52.210;21.112;2024-01-27T02:25:01;3.90;99.90
50989;DHT22;37008;52.210;21.112;2024-01-27T02:27:27;3.80;99.90
50989;DHT22;37008;52.210;21.112;2024-01-27T02:29:52;3.80;99.90
50989;DHT22;37008;52.210;21.112;2024-01-27T02:32:18;3.80;99.90
50989;DHT22;37008;52.210;21.112;2024-01-27T02:34:43;3.80;99.90
50989;DHT22;37008;52.210;21.112;2024-01-27T02:37:09;3.80;99.90
50989;DHT22;37008;52.210;21.112;2024-01-27T02:39:35;3.70;99.90
50989;DHT22;37008;52.210;21.112;2024-01-27T02:42:01;3.70;99.90
50989;DHT22;37008;52.210;21.112;2024-01-27T02:44:27;3.80;99.90
50989;DHT22;37008;52.210;21.112;2024-01-27T02:46:53;3.80;99.90
50989;DHT22;37008;52.210;21.112;2024-01-27T02:49:18;3.80;99.90
50989;DHT22;37008;52.210;21.112;2024-01-27T02:51:44;3.80;99.90
50989;DHT22;37008;52.210;21.112;2024-01-27T02:54:10;3.80;99.90
50989;DHT22;37008;52.210;21.112;2024-01-27T02:56:35;3.80;99.90
50989;DHT22;37008;52.210;21.112;2024-01-27T02:59:01;3.80;99.90
50989;DHT22;37008;52.210;21.112;2024-01-27T03:01:26;3.80;99.90
50989;DHT22;37008;52.210;21.112;2024-01-27T03:03:52;3.80;99.90
50989;DHT22;37008;52.210;21.112;2024-01-27T03:06:18;3.80;99.90
50989;DHT22;37008;52.210;21.112;2024-01-27T03:08:43;3.80;99.90
50989;DHT22;37008;52.210;21.112;2024-01-27T03:11:09;3.80;99.90
50989;DHT22;37008;52.210;21.112;2024-01-27T03:13:34;3.80;99.90
50989;DHT22;37008;52.210;21.112;2024-01-27T03:16:00;3.80;99.90
50989;DHT22;37008;52.210;21.112;2024-01-27T03:18:26;3.80;99.90
50989;DHT22;37008;52.210;21.112;2024-01-27T03:20:51;3.80;99.90
50989;DHT22;37008;52.210;21.112;2024-01-27T03:23:17;3.80;99.90
50989;DHT22;37008;52.210;21.112;2024-01-27T03:25:43;3.80;99.90
50989;DHT22;37008;52.210;21.112;2024-01-27T03:28:08;3.80;99.90
50989;DHT22;37008;52.210;21.112;2024-01-27T03:30:34;3.80;99.90
50989;DHT22;37008;52.210;21.112;2024-01-27T03:32:59;3.80;99.90
50989;DHT22;37008;52.210;21.112;2024-01-27T03:35:25;3.80;99.90
50989;DHT22;37008;52.210;21.112;2024-01-27T03:37:50;3.80;99.90
50989;DHT22;37008;52.210;21.112;2024-01-27T03:40:17;3.80;99.90
50989;DHT22;37008;52.210;21.112;2024-01-27T03:42:43;3.80;99.90
50989;DHT22;37008;52.210;21.112;2024-01-27T03:45:09;3.70;99.90
50989;DHT22;37008;52.210;21.112;2024-01-27T03:47:34;3.80;99.90
50989;DHT22;37008;52.210;21.112;2024-01-27T03:50:00;3.80;99.90
50989;DHT22;37008;52.210;21.112;2024-01-27T03:52:25;3.70;99.90
50989;DHT22;37008;52.210;21.112;2024-01-27T03:54:51;3.70;99.90
50989;DHT22;37008;52.210;21.112;2024-01-27T03:57:16;3.70;99.90
50989;DHT22;37008;52.210;21.112;2024-01-27T03:59:42;3.70;99.90
50989;DHT22;37008;52.210;21.112;2024-01-27T04:02:07;3.70;99.90
50989;DHT22;37008;52.210;21.112;2024-01-27T04:04:33;3.70;99.90
50989;DHT22;37008;52.210;21.112;2024-01-27T04:06:59;3.70;99.90
50989;DHT22;37008;52.210;21.112;2024-01-27T04:09:24;3.70;99.90
50989;DHT22;37008;52.210;21.112;2024-01-27T04:11:50;3.60;99.90
50989;DHT22;37008;52.210;21.112;2024-01-27T04:14:16;3.60;99.90
50989;DHT22;37008;52.210;21.112;2024-01-27T04:16:42;3.60;99.90
50989;DHT22;37008;52.210;21.112;2024-01-27T04:19:07;3.60;99.90
50989;DHT22;37008;52.210;21.112;2024-01-27T04:21:33;3.40;99.90
50989;DHT22;37008;52.210;21.112;2024-01-27T04:23:58;3.40;99.90
50989;DHT22;37008;52.210;21.112;2024-01-27T04:26:24;3.30;99.90
50989;DHT22;37008;52.210;21.112;2024-01-27T04:28:49;3.30;99.90
50989;DHT22;37008;52.210;21.112;2024-01-27T04:31:15;3.20;99.90
50989;DHT22;37008;52.210;21.112;2024-01-27T04:33:40;3.20;99.90
50989;DHT22;37008;52.210;21.112;2024-01-27T04:36:06;3.30;99.90
50989;DHT22;37008;52.210;21.112;2024-01-27T04:38:32;3.30;99.90
50989;DHT22;37008;52.210;21.112;2024-01-27T04:40:58;3.30;99.90
50989;DHT22;37008;52.210;21.112;2024-01-27T04:43:23;3.40;99.90
50989;DHT22;37008;52.210;21.112;2024-01-27T04:45:49;3.40;99.90
50989;DHT22;37008;52.210;21.112;2024-01-27T04:48:15;3.50;99.90
50989;DHT22;37008;52.210;21.112;2024-01-27T04:50:41;3.50;99.90
50989;DHT22;37008;52.210;21.112;2024-01-27T04:53:06;3.50;99.90
50989;DHT22;37008;52.210;21.112;2024-01-27T04:55:32;3.60;99.90
50989;DHT22;37008;52.210;21.112;2024-01-27T04:57:58;3.60;99.90
50989;DHT22;37008;52.210;21.112;2024-01-27T05:00:26;3.60;99.90
50989;DHT22;37008;52.210;21.112;2024-01-27T05:02:53;3.60;99.90
50989;DHT22;37008;52.210;21.112;2024-01-27T05:05:19;3.60;99.90
50989;DHT22;37008;52.210;21.112;2024-01-27T05:07:44;3.60;99.90
50989;DHT22;37008;52.210;21.112;2024-01-27T05:10:10;3.60;99.90
50989;DHT22;37008;52.210;21.112;2024-01-27T05:12:37;3.60;99.90
50989;DHT22;37008;52.210;21.112;2024-01-27T05:15:03;3.60;99.90
50989;DHT22;37008;52.210;21.112;2024-01-27T05:17:29;3.50;99.90
50989;DHT22;37008;52.210;21.112;2024-01-27T05:19:54;3.40;99.90
50989;DHT22;37008;52.210;21.112;2024-01-27T05:22:20;3.30;99.90
50989;DHT22;37008;52.210;21.112;2024-01-27T05:24:45;3.40;99.90
50989;DHT22;37008;52.210;21.112;2024-01-27T05:27:11;3.30;99.90
50989;DHT22;37008;52.210;21.112;2024-01-27T05:29:37;3.30;99.90
50989;DHT22;37008;52.210;21.112;2024-01-27T05:32:03;3.30;99.90
50989;DHT22;37008;52.210;21.112;2024-01-27T05:34:29;3.30;99.90
50989;DHT22;37008;52.210;21.112;2024-01-27T05:36:54;3.20;99.90
50989;DHT22;37008;52.210;21.112;2024-01-27T05:39:20;3.30;99.90
50989;DHT22;37008;52.210;21.112;2024-01-27T05:41:45;3.30;99.90
50989;DHT22;37008;52.210;21.112;2024-01-27T05:44:12;3.20;99.90
50989;DHT22;37008;52.210;21.112;2024-01-27T05:46:37;3.20;99.90
50989;DHT22;37008;52.210;21.112;2024-01-27T05:49:03;3.10;99.90
50989;DHT22;37008;52.210;21.112;2024-01-27T05:51:29;3.10;99.90
50989;DHT22;37008;52.210;21.112;2024-01-27T05:53:59;3.10;99.90
50989;DHT22;37008;52.210;21.112;2024-01-27T05:56:24;3.00;99.90
50989;DHT22;37008;52.210;21.112;2024-01-27T05:58:50;3.00;99.90
50989;DHT22;37008;52.210;21.112;2024-01-27T06:01:19;3.00;99.90
50989;DHT22;37008;52.210;21.112;2024-01-27T06:03:45;3.00;99.90
50989;DHT22;37008;52.210;21.112;2024-01-27T06:06:10;3.00;99.90
50989;DHT22;37008;52.210;21.112;2024-01-27T06:08:36;3.10;99.90
50989;DHT22;37008;52.210;21.112;2024-01-27T06:11:02;3.10;99.90
50989;DHT22;37008;52.210;21.112;2024-01-27T06:13:29;3.10;99.90
50989;DHT22;37008;52.210;21.112;2024-01-27T06:15:54;3.20;99.90
50989;DHT22;37008;52.210;21.112;2024-01-27T06:18:20;3.20;99.90
50989;DHT22;37008;52.210;21.112;2024-01-27T06:20:46;3.20;99.90
50989;DHT22;37008;52.210;21.112;2024-01-27T06:23:12;3.20;99.90
50989;DHT22;37008;52.210;21.112;2024-01-27T06:25:37;3.20;99.90
50989;DHT22;37008;52.210;21.112;2024-01-27T06:28:03;3.20;99.90
50989;DHT22;37008;52.210;21.112;2024-01-27T06:30:28;3.20;99.90
50989;DHT22;37008;52.210;21.112;2024-01-27T06:32:54;3.20;99.90
50989;DHT22;37008;52.210;21.112;2024-01-27T06:35:20;3.20;99.90
50989;DHT22;37008;52.210;21.112;2024-01-27T06:37:45;3.10;99.90
50989;DHT22;37008;52.210;21.112;2024-01-27T06:40:11;3.10;99.90
50989;DHT22;37008;52.210;21.112;2024-01-27T06:42:37;3.10;99.90
50989;DHT22;37008;52.210;21.112;2024-01-27T06:45:03;3.00;99.90
50989;DHT22;37008;52.210;21.112;2024-01-27T06:47:29;3.00;99.90
50989;DHT22;37008;52.210;21.112;2024-01-27T06:49:55;3.00;99.90
50989;DHT22;37008;52.210;21.112;2024-01-27T06:52:20;2.90;99.90
50989;DHT22;37008;52.210;21.112;2024-01-27T06:54:46;2.90;99.90
50989;DHT22;37008;52.210;21.112;2024-01-27T06:57:22;2.80;99.90
50989;DHT22;37008;52.210;21.112;2024-01-27T06:59:49;2.80;99.90
50989;DHT22;37008;52.210;21.112;2024-01-27T07:02:22;2.70;99.90
50989;DHT22;37008;52.210;21.112;2024-01-27T07:04:48;2.70;99.90
50989;DHT22;37008;52.210;21.112;2024-01-27T07:07:13;2.70;99.90
50989;DHT22;37008;52.210;21.112;2024-01-27T07:09:39;2.60;99.90
50989;DHT22;37008;52.210;21.112;2024-01-27T07:12:05;2.60;99.90
50989;DHT22;37008;52.210;21.112;2024-01-27T07:14:30;2.60;99.90
50989;DHT22;37008;52.210;21.112;2024-01-27T07:16:56;2.60;99.90
50989;DHT22;37008;52.210;21.112;2024-01-27T07:19:21;2.50;99.90
50989;DHT22;37008;52.210;21.112;2024-01-27T07:21:47;2.50;99.90
50989;DHT22;37008;52.210;21.112;2024-01-27T07:24:12;2.50;99.90
50989;DHT22;37008;52.210;21.112;2024-01-27T07:26:38;2.50;99.90
50989;DHT22;37008;52.210;21.112;2024-01-27T07:29:04;2.50;99.90
50989;DHT22;37008;52.210;21.112;2024-01-27T07:31:29;2.50;99.90
50989;DHT22;37008;52.210;21.112;2024-01-27T07:33:56;2.50;99.90
50989;DHT22;37008;52.210;21.112;2024-01-27T07:36:22;2.50;99.90
50989;DHT22;37008;52.210;21.112;2024-01-27T07:38:47;2.50;99.90
50989;DHT22;37008;52.210;21.112;2024-01-27T07:41:13;2.50;99.90
50989;DHT22;37008;52.210;21.112;2024-01-27T07:43:38;2.50;99.90
50989;DHT22;37008;52.210;21.112;2024-01-27T07:46:04;2.50;99.90
50989;DHT22;37008;52.210;21.112;2024-01-27T07:48:30;2.50;99.90
50989;DHT22;37008;52.210;21.112;2024-01-27T07:50:55;2.50;99.90
50989;DHT22;37008;52.210;21.112;2024-01-27T07:53:22;2.50;99.90
50989;DHT22;37008;52.210;21.112;2024-01-27T07:55:47;2.50;99.90
50989;DHT22;37008;52.210;21.112;2024-01-27T07:58:13;2.50;99.90
50989;DHT22;37008;52.210;21.112;2024-01-27T08:00:38;2.60;99.90
50989;DHT22;37008;52.210;21.112;2024-01-27T08:03:04;2.60;99.90
50989;DHT22;37008;52.210;21.112;2024-01-27T08:05:30;2.60;99.90
50989;DHT22;37008;52.210;21.112;2024-01-27T08:07:56;2.60;99.90
50989;DHT22;37008;52.210;21.112;2024-01-27T08:10:22;2.60;99.90
50989;DHT22;37008;52.210;21.112;2024-01-27T08:12:47;2.60;99.90
50989;DHT22;37008;52.210;21.112;2024-01-27T08:15:13;2.60;99.90
50989;DHT22;37008;52.210;21.112;2024-01-27T08:17:39;2.60;99.90
50989;DHT22;37008;52.210;21.112;2024-01-27T08:20:05;2.60;99.90
50989;DHT22;37008;52.210;21.112;2024-01-27T08:22:31;2.70;99.90
50989;DHT22;37008;52.210;21.112;2024-01-27T08:24:56;2.70;99.90
50989;DHT22;37008;52.210;21.112;2024-01-27T08:27:22;2.60;99.90
50989;DHT22;37008;52.210;21.112;2024-01-27T08:29:48;2.60;99.90
50989;DHT22;37008;52.210;21.112;2024-01-27T08:32:14;2.60;99.90
50989;DHT22;37008;52.210;21.112;2024-01-27T08:34:40;2.60;99.90
50989;DHT22;37008;52.210;21.112;2024-01-27T08:37:15;2.60;99.90
50989;DHT22;37008;52.210;21.112;2024-01-27T08:39:44;2.60;99.90
50989;DHT22;37008;52.210;21.112;2024-01-27T08:42:10;2.60;99.90
50989;DHT22;37008;52.210;21.112;2024-01-27T08:44:35;2.70;99.90
50989;DHT22;37008;52.210;21.112;2024-01-27T08:47:01;2.70;99.90
50989;DHT22;37008;52.210;21.112;2024-01-27T08:49:26;2.70;99.90
50989;DHT22;37008;52.210;21.112;2024-01-27T08:51:52;2.70;99.90
50989;DHT22;37008;52.210;21.112;2024-01-27T08:54:17;2.70;99.90
50989;DHT22;37008;52.210;21.112;2024-01-27T08:56:43;2.60;99.90
50989;DHT22;37008;52.210;21.112;2024-01-27T08:59:09;2.60;99.90
50989;DHT22;37008;52.210;21.112;2024-01-27T09:01:34;2.60;99.90
50989;DHT22;37008;52.210;21.112;2024-01-27T09:04:00;2.60;99.90
50989;DHT22;37008;52.210;21.112;2024-01-27T09:06:26;2.60;99.90
50989;DHT22;37008;52.210;21.112;2024-01-27T09:08:51;2.60;99.90
50989;DHT22;37008;52.210;21.112;2024-01-27T09:11:17;2.60;99.90
50989;DHT22;37008;52.210;21.112;2024-01-27T09:13:42;2.60;99.90
50989;DHT22;37008;52.210;21.112;2024-01-27T09:16:11;2.60;99.90
50989;DHT22;37008;52.210;21.112;2024-01-27T09:18:39;2.60;99.90
50989;DHT22;37008;52.210;21.112;2024-01-27T09:21:04;2.60;99.90
50989;DHT22;37008;52.210;21.112;2024-01-27T09:23:30;2.70;99.90
50989;DHT22;37008;52.210;21.112;2024-01-27T09:25:55;2.70;99.90
50989;DHT22;37008;52.210;21.112;2024-01-27T09:28:21;2.60;99.90
50989;DHT22;37008;52.210;21.112;2024-01-27T09:30:47;2.60;99.90
50989;DHT22;37008;52.210;21.112;2024-01-27T09:33:12;2.60;99.90
50989;DHT22;37008;52.210;21.112;2024-01-27T09:35:38;2.60;99.90
50989;DHT22;37008;52.210;21.112;2024-01-27T09:38:04;2.70;99.90
50989;DHT22;37008;52.210;21.112;2024-01-27T09:40:30;2.70;99.90
50989;DHT22;37008;52.210;21.112;2024-01-27T09:42:59;2.70;99.90
50989;DHT22;37008;52.210;21.112;2024-01-27T09:45:25;2.70;99.90
50989;DHT22;37008;52.210;21.112;2024-01-27T09:47:51;2.80;99.90
50989;DHT22;37008;52.210;21.112;2024-01-27T09:50:19;2.80;99.90
50989;DHT22;37008;52.210;21.112;2024-01-27T09:52:46;2.80;99.90
50989;DHT22;37008;52.210;21.112;2024-01-27T09:55:12;2.90;99.90
50989;DHT22;37008;52.210;21.112;2024-01-27T09:57:41;2.90;99.90
50989;DHT22;37008;52.210;21.112;2024-01-27T10:00:10;2.90;99.90
50989;DHT22;37008;52.210;21.112;2024-01-27T10:02:42;2.90;99.90
50989;DHT22;37008;52.210;21.112;2024-01-27T10:05:11;2.90;99.90
50989;DHT22;37008;52.210;21.112;2024-01-27T10:07:39;2.90;99.90
50989;DHT22;37008;52.210;21.112;2024-01-27T10:10:05;2.80;99.90
50989;DHT22;37008;52.210;21.112;2024-01-27T10:12:31;2.90;99.90
50989;DHT22;37008;52.210;21.112;2024-01-27T10:14:57;2.80;99.90
50989;DHT22;37008;52.210;21.112;2024-01-27T10:17:24;2.80;99.90
50989;DHT22;37008;52.210;21.112;2024-01-27T10:20:02;2.90;99.90
50989;DHT22;37008;52.210;21.112;2024-01-27T10:22:40;2.90;99.90
50989;DHT22;37008;52.210;21.112;2024-01-27T10:25:09;2.90;99.90
50989;DHT22;37008;52.210;21.112;2024-01-27T10:27:35;2.90;99.90
50989;DHT22;37008;52.210;21.112;2024-01-27T10:30:01;2.90;99.90
50989;DHT22;37008;52.210;21.112;2024-01-27T10:32:28;3.00;99.90
50989;DHT22;37008;52.210;21.112;2024-01-27T10:35:06;3.10;99.90
50989;DHT22;37008;52.210;21.112;2024-01-27T10:37:36;3.10;99.90
50989;DHT22;37008;52.210;21.112;2024-01-27T10:40:08;3.10;99.90
50989;DHT22;37008;52.210;21.112;2024-01-27T10:42:35;3.10;99.90
50989;DHT22;37008;52.210;21.112;2024-01-27T10:45:02;3.10;99.90
50989;DHT22;37008;52.210;21.112;2024-01-27T10:47:29;3.10;99.90
50989;DHT22;37008;52.210;21.112;2024-01-27T10:49:57;3.10;99.90
50989;DHT22;37008;52.210;21.112;2024-01-27T10:52:33;3.10;99.90
50989;DHT22;37008;52.210;21.112;2024-01-27T10:55:03;3.10;99.90
50989;DHT22;37008;52.210;21.112;2024-01-27T10:57:30;3.10;99.90
50989;DHT22;37008;52.210;21.112;2024-01-27T10:59:57;3.20;99.90
50989;DHT22;37008;52.210;21.112;2024-01-27T11:02:23;3.20;99.90
50989;DHT22;37008;52.210;21.112;2024-01-27T11:04:51;3.40;99.90
50989;DHT22;37008;52.210;21.112;2024-01-27T11:07:19;3.20;99.90
50989;DHT22;37008;52.210;21.112;2024-01-27T11:09:49;3.20;99.90
50989;DHT22;37008;52.210;21.112;2024-01-27T11:12:15;3.20;99.90
50989;DHT22;37008;52.210;21.112;2024-01-27T11:14:41;3.40;99.90
50989;DHT22;37008;52.210;21.112;2024-01-27T11:17:07;3.10;99.90
50989;DHT22;37008;52.210;21.112;2024-01-27T11:19:33;3.10;99.90
50989;DHT22;37008;52.210;21.112;2024-01-27T11:22:03;3.10;99.90
50989;DHT22;37008;52.210;21.112;2024-01-27T11:24:29;3.10;99.90
50989;DHT22;37008;52.210;21.112;2024-01-27T11:27:04;3.00;99.90
50989;DHT22;37008;52.210;21.112;2024-01-27T11:29:30;3.00;99.90
50989;DHT22;37008;52.210;21.112;2024-01-27T11:32:02;3.00;99.90
50989;DHT22;37008;52.210;21.112;2024-01-27T11:34:40;3.00;99.90
50989;DHT22;37008;52.210;21.112;2024-01-27T11:37:16;3.00;99.90
50989;DHT22;37008;52.210;21.112;2024-01-27T11:39:42;3.00;99.90
50989;DHT22;37008;52.210;21.112;2024-01-27T11:42:10;3.00;99.90
50989;DHT22;37008;52.210;21.112;2024-01-27T11:44:39;3.00;99.90
50989;DHT22;37008;52.210;21.112;2024-01-27T11:47:08;3.00;99.90
50989;DHT22;37008;52.210;21.112;2024-01-27T11:49:39;3.00;99.90
50989;DHT22;37008;52.210;21.112;2024-01-27T11:52:06;3.10;99.90
50989;DHT22;37008;52.210;21.112;2024-01-27T11:54:32;3.10;99.90
50989;DHT22;37008;52.210;21.112;2024-01-27T11:56:58;3.10;99.90
50989;DHT22;37008;52.210;21.112;2024-01-27T11:59:23;3.10;99.90
50989;DHT22;37008;52.210;21.112;2024-01-27T12:01:49;3.10;99.90
50989;DHT22;37008;52.210;21.112;2024-01-27T12:04:15;3.10;99.90
50989;DHT22;37008;52.210;21.112;2024-01-27T12:06:43;3.10;99.90
50989;DHT22;37008;52.210;21.112;2024-01-27T12:09:09;3.10;99.90
50989;DHT22;37008;52.210;21.112;2024-01-27T12:11:38;3.10;99.90
50989;DHT22;37008;52.210;21.112;2024-01-27T12:14:05;3.00;99.90
50989;DHT22;37008;52.210;21.112;2024-01-27T12:16:31;3.10;99.90
50989;DHT22;37008;52.210;21.112;2024-01-27T12:18:57;3.10;99.90
50989;DHT22;37008;52.210;21.112;2024-01-27T12:21:22;3.00;99.90
50989;DHT22;37008;52.210;21.112;2024-01-27T12:23:53;3.00;99.90
50989;DHT22;37008;52.210;21.112;2024-01-27T12:26:29;3.00;99.90
50989;DHT22;37008;52.210;21.112;2024-01-27T12:28:56;3.00;99.90
50989;DHT22;37008;52.210;21.112;2024-01-27T12:31:23;3.00;99.90
50989;DHT22;37008;52.210;21.112;2024-01-27T12:33:54;3.00;99.90
50989;DHT22;37008;52.210;21.112;2024-01-27T12:36:21;3.00;99.90
50989;DHT22;37008;52.210;21.112;2024-01-27T12:39:07;3.00;99.90
50989;DHT22;37008;52.210;21.112;2024-01-27T12:41:33;3.00;99.90
50989;DHT22;37008;52.210;21.112;2024-01-27T12:43:59;3.00;99.90
50989;DHT22;37008;52.210;21.112;2024-01-27T12:46:26;3.00;99.90
50989;DHT22;37008;52.210;21.112;2024-01-27T12:48:51;3.00;99.90
50989;DHT22;37008;52.210;21.112;2024-01-27T12:51:18;3.00;99.90
50989;DHT22;37008;52.210;21.112;2024-01-27T12:53:44;3.00;99.90
50989;DHT22;37008;52.210;21.112;2024-01-27T12:56:10;3.00;99.90
50989;DHT22;37008;52.210;21.112;2024-01-27T12:58:37;3.00;99.90
50989;DHT22;37008;52.210;21.112;2024-01-27T13:01:02;3.10;99.90
50989;DHT22;37008;52.210;21.112;2024-01-27T13:03:28;3.00;99.90
50989;DHT22;37008;52.210;21.112;2024-01-27T13:05:55;3.00;99.90
50989;DHT22;37008;52.210;21.112;2024-01-27T13:08:21;3.10;99.90
50989;DHT22;37008;52.210;21.112;2024-01-27T13:10:47;3.10;99.90
50989;DHT22;37008;52.210;21.112;2024-01-27T13:13:13;3.20;99.90
50989;DHT22;37008;52.210;21.112;2024-01-27T13:15:38;3.60;99.90
50989;DHT22;37008;52.210;21.112;2024-01-27T13:18:04;3.20;99.90
50989;DHT22;37008;52.210;21.112;2024-01-27T13:20:30;3.20;99.90
50989;DHT22;37008;52.210;21.112;2024-01-27T13:22:56;3.20;99.90
50989;DHT22;37008;52.210;21.112;2024-01-27T13:25:21;3.20;99.90
50989;DHT22;37008;52.210;21.112;2024-01-27T13:27:47;3.30;99.90
50989;DHT22;37008;52.210;21.112;2024-01-27T13:30:13;3.30;99.90
50989;DHT22;37008;52.210;21.112;2024-01-27T13:32:39;3.30;99.90
50989;DHT22;37008;52.210;21.112;2024-01-27T13:35:06;3.40;99.90
50989;DHT22;37008;52.210;21.112;2024-01-27T13:37:33;3.40;99.90
50989;DHT22;37008;52.210;21.112;2024-01-27T13:40:03;2.80;99.90
50989;DHT22;37008;52.210;21.112;2024-01-27T13:42:30;3.40;99.90
50989;DHT22;37008;52.210;21.112;2024-01-27T13:44:56;3.20;99.90
50989;DHT22;37008;52.210;21.112;2024-01-27T13:47:22;3.50;99.90
50989;DHT22;37008;52.210;21.112;2024-01-27T13:49:48;3.70;99.90
50989;DHT22;37008;52.210;21.112;2024-01-27T13:52:14;3.40;99.90
50989;DHT22;37008;52.210;21.112;2024-01-27T13:54:39;3.50;99.90
50989;DHT22;37008;52.210;21.112;2024-01-27T13:57:06;3.40;99.90
50989;DHT22;37008;52.210;21.112;2024-01-27T13:59:31;3.40;99.90
50989;DHT22;37008;52.210;21.112;2024-01-27T14:01:58;3.50;99.90
50989;DHT22;37008;52.210;21.112;2024-01-27T14:04:24;3.40;99.90
50989;DHT22;37008;52.210;21.112;2024-01-27T14:06:51;3.40;99.90
50989;DHT22;37008;52.210;21.112;2024-01-27T14:09:19;3.40;99.90
50989;DHT22;37008;52.210;21.112;2024-01-27T14:11:44;3.40;99.90
50989;DHT22;37008;52.210;21.112;2024-01-27T14:14:10;3.40;99.90
50989;DHT22;37008;52.210;21.112;2024-01-27T14:16:36;3.40;99.90
50989;DHT22;37008;52.210;21.112;2024-01-27T14:19:01;3.40;99.90
50989;DHT22;37008;52.210;21.112;2024-01-27T14:21:27;3.40;99.90
50989;DHT22;37008;52.210;21.112;2024-01-27T14:23:54;3.30;99.90
50989;DHT22;37008;52.210;21.112;2024-01-27T14:26:27;3.50;99.90
50989;DHT22;37008;52.210;21.112;2024-01-27T14:28:54;3.40;99.90
50989;DHT22;37008;52.210;21.112;2024-01-27T14:31:19;3.50;99.90
50989;DHT22;37008;52.210;21.112;2024-01-27T14:33:45;3.40;99.90
50989;DHT22;37008;52.210;21.112;2024-01-27T14:36:10;3.40;99.90
50989;DHT22;37008;52.210;21.112;2024-01-27T14:38:37;3.30;99.90
50989;DHT22;37008;52.210;21.112;2024-01-27T14:41:02;3.30;99.90
50989;DHT22;37008;52.210;21.112;2024-01-27T14:43:29;3.30;99.90
50989;DHT22;37008;52.210;21.112;2024-01-27T14:45:54;3.30;99.90
50989;DHT22;37008;52.210;21.112;2024-01-27T14:48:21;3.20;99.90
50989;DHT22;37008;52.210;21.112;2024-01-27T14:50:47;3.10;99.90
50989;DHT22;37008;52.210;21.112;2024-01-27T14:53:18;3.10;99.90
50989;DHT22;37008;52.210;21.112;2024-01-27T14:55:44;3.00;99.90
50989;DHT22;37008;52.210;21.112;2024-01-27T14:58:10;2.90;99.90
50989;DHT22;37008;52.210;21.112;2024-01-27T15:00:36;2.90;99.90
50989;DHT22;37008;52.210;21.112;2024-01-27T15:03:05;2.90;99.90
50989;DHT22;37008;52.210;21.112;2024-01-27T15:05:31;2.80;99.90
50989;DHT22;37008;52.210;21.112;2024-01-27T15:08:01;2.80;99.90
50989;DHT22;37008;52.210;21.112;2024-01-27T15:10:27;2.80;99.90
50989;DHT22;37008;52.210;21.112;2024-01-27T15:12:53;2.80;99.90
50989;DHT22;37008;52.210;21.112;2024-01-27T15:15:18;2.80;99.90
50989;DHT22;37008;52.210;21.112;2024-01-27T15:17:44;2.80;99.90
50989;DHT22;37008;52.210;21.112;2024-01-27T15:20:10;2.80;99.90
50989;DHT22;37008;52.210;21.112;2024-01-27T15:22:35;2.90;99.90
50989;DHT22;37008;52.210;21.112;2024-01-27T15:25:01;2.90;99.90